sensor_id;sensor_type;location;lat;lon;timestamp;P1;durP1;ratioP1;P2;durP2;ratioP2
4214;SDS011;2121;48.062;7.850;2022-10-20T00:01:51;13.80;;;10.43;;
4214;SDS011;2121;48.062;7.850;2022-10-20T00:04:17;16.87;;;10.30;;
4214;SDS011;2121;48.062;7.850;2022-10-20T00:06:43;18.43;;;10.57;;
4214;SDS011;2121;48.062;7.850;2022-10-20T00:09:08;14.33;;;10.00;;
4214;SDS011;2121;48.062;7.850;2022-10-20T00:11:34;18.20;;;10.47;;
4214;SDS011;2121;48.062;7.850;2022-10-20T00:14:00;10.53;;;9.23;;
4214;SDS011;2121;48.062;7.850;2022-10-20T00:16:28;22.33;;;10.87;;
4214;SDS011;2121;48.062;7.850;2022-10-20T00:18:56;12.23;;;9.80;;
4214;SDS011;2121;48.062;7.850;2022-10-20T00:21:24;12.37;;;8.63;;
4214;SDS011;2121;48.062;7.850;2022-10-20T00:23:51;11.60;;;8.73;;
4214;SDS011;2121;48.062;7.850;2022-10-20T00:26:18;13.10;;;9.60;;
4214;SDS011;2121;48.062;7.850;2022-10-20T00:28:50;12.83;;;8.90;;
4214;SDS011;2121;48.062;7.850;2022-10-20T00:31:17;10.50;;;8.57;;
4214;SDS011;2121;48.062;7.850;2022-10-20T00:33:45;10.50;;;8.60;;
4214;SDS011;2121;48.062;7.850;2022-10-20T00:36:12;9.70;;;7.70;;
4214;SDS011;2121;48.062;7.850;2022-10-20T00:38:41;9.20;;;8.20;;
4214;SDS011;2121;48.062;7.850;2022-10-20T00:41:07;11.60;;;9.13;;
4214;SDS011;2121;48.062;7.850;2022-10-20T00:43:41;25.00;;;8.93;;
4214;SDS011;2121;48.062;7.850;2022-10-20T00:46:47;9.40;;;7.40;;
4214;SDS011;2121;48.062;7.850;2022-10-20T00:49:14;14.47;;;8.20;;
4214;SDS011;2121;48.062;7.850;2022-10-20T00:51:52;16.40;;;9.77;;
4214;SDS011;2121;48.062;7.850;2022-10-20T00:54:22;13.97;;;8.30;;
4214;SDS011;2121;48.062;7.850;2022-10-20T00:56:51;10.27;;;8.13;;
4214;SDS011;2121;48.062;7.850;2022-10-20T00:59:20;9.70;;;7.50;;
4214;SDS011;2121;48.062;7.850;2022-10-20T01:01:51;15.57;;;9.83;;
4214;SDS011;2121;48.062;7.850;2022-10-20T01:04:18;10.63;;;8.73;;
4214;SDS011;2121;48.062;7.850;2022-10-20T01:06:44;14.07;;;9.03;;
4214;SDS011;2121;48.062;7.850;2022-10-20T01:09:10;10.63;;;8.10;;
4214;SDS011;2121;48.062;7.850;2022-10-20T01:11:52;9.90;;;7.70;;
4214;SDS011;2121;48.062;7.850;2022-10-20T01:14:41;13.57;;;7.53;;
4214;SDS011;2121;48.062;7.850;2022-10-20T01:20:41;12.70;;;8.50;;
4214;SDS011;2121;48.062;7.850;2022-10-20T01:23:40;9.43;;;7.70;;
4214;SDS011;2121;48.062;7.850;2022-10-20T01:32:01;9.83;;;8.07;;
4214;SDS011;2121;48.062;7.850;2022-10-20T01:35:22;9.53;;;8.17;;
4214;SDS011;2121;48.062;7.850;2022-10-20T01:38:03;9.50;;;7.10;;
4214;SDS011;2121;48.062;7.850;2022-10-20T01:43:18;13.70;;;8.67;;
4214;SDS011;2121;48.062;7.850;2022-10-20T01:45:47;8.97;;;7.40;;
4214;SDS011;2121;48.062;7.850;2022-10-20T01:48:15;11.53;;;8.20;;
4214;SDS011;2121;48.062;7.850;2022-10-20T01:50:45;11.50;;;8.10;;
4214;SDS011;2121;48.062;7.850;2022-10-20T01:53:12;7.67;;;6.83;;
4214;SDS011;2121;48.062;7.850;2022-10-20T01:55:38;18.20;;;8.80;;
4214;SDS011;2121;48.062;7.850;2022-10-20T02:04:12;12.83;;;8.27;;
4214;SDS011;2121;48.062;7.850;2022-10-20T02:09:25;8.60;;;7.70;;
4214;SDS011;2121;48.062;7.850;2022-10-20T02:12:07;14.67;;;8.33;;
4214;SDS011;2121;48.062;7.850;2022-10-20T02:14:39;13.73;;;8.60;;
4214;SDS011;2121;48.062;7.850;2022-10-20T02:17:06;13.77;;;7.37;;
4214;SDS011;2121;48.062;7.850;2022-10-20T02:19:40;9.10;;;6.83;;
4214;SDS011;2121;48.062;7.850;2022-10-20T02:22:08;12.80;;;8.17;;
4214;SDS011;2121;48.062;7.850;2022-10-20T02:24:37;9.63;;;8.00;;
4214;SDS011;2121;48.062;7.850;2022-10-20T02:30:07;11.37;;;8.80;;
4214;SDS011;2121;48.062;7.850;2022-10-20T02:32:37;12.37;;;8.20;;
4214;SDS011;2121;48.062;7.850;2022-10-20T02:35:05;11.43;;;8.30;;
4214;SDS011;2121;48.062;7.850;2022-10-20T02:37:35;12.40;;;9.40;;
4214;SDS011;2121;48.062;7.850;2022-10-20T02:40:01;11.20;;;8.40;;
4214;SDS011;2121;48.062;7.850;2022-10-20T02:42:27;19.23;;;8.50;;
4214;SDS011;2121;48.062;7.850;2022-10-20T02:44:53;12.73;;;9.50;;
4214;SDS011;2121;48.062;7.850;2022-10-20T02:47:19;13.10;;;7.93;;
4214;SDS011;2121;48.062;7.850;2022-10-20T02:49:46;14.50;;;8.80;;
4214;SDS011;2121;48.062;7.850;2022-10-20T02:52:12;10.10;;;7.83;;
4214;SDS011;2121;48.062;7.850;2022-10-20T02:54:38;16.70;;;8.20;;
4214;SDS011;2121;48.062;7.850;2022-10-20T02:57:04;13.77;;;7.77;;
4214;SDS011;2121;48.062;7.850;2022-10-20T02:59:30;11.70;;;8.23;;
4214;SDS011;2121;48.062;7.850;2022-10-20T03:01:56;15.60;;;7.80;;
4214;SDS011;2121;48.062;7.850;2022-10-20T03:04:21;9.13;;;7.63;;
4214;SDS011;2121;48.062;7.850;2022-10-20T03:06:47;13.40;;;7.80;;
4214;SDS011;2121;48.062;7.850;2022-10-20T03:09:13;11.87;;;8.97;;
4214;SDS011;2121;48.062;7.850;2022-10-20T03:11:38;11.03;;;8.87;;
4214;SDS011;2121;48.062;7.850;2022-10-20T03:14:04;10.93;;;8.90;;
4214;SDS011;2121;48.062;7.850;2022-10-20T03:16:30;12.07;;;7.80;;
4214;SDS011;2121;48.062;7.850;2022-10-20T03:18:56;11.20;;;8.70;;
4214;SDS011;2121;48.062;7.850;2022-10-20T03:21:21;10.90;;;7.70;;
4214;SDS011;2121;48.062;7.850;2022-10-20T03:23:47;10.63;;;8.03;;
4214;SDS011;2121;48.062;7.850;2022-10-20T03:26:13;8.83;;;7.50;;
4214;SDS011;2121;48.062;7.850;2022-10-20T03:28:39;14.57;;;7.97;;
4214;SDS011;2121;48.062;7.850;2022-10-20T03:31:05;15.03;;;9.80;;
4214;SDS011;2121;48.062;7.850;2022-10-20T03:33:31;15.10;;;9.80;;
4214;SDS011;2121;48.062;7.850;2022-10-20T03:35:57;15.43;;;8.23;;
4214;SDS011;2121;48.062;7.850;2022-10-20T03:38:23;12.53;;;8.33;;
4214;SDS011;2121;48.062;7.850;2022-10-20T03:40:49;11.27;;;8.80;;
4214;SDS011;2121;48.062;7.850;2022-10-20T03:43:15;9.33;;;7.07;;
4214;SDS011;2121;48.062;7.850;2022-10-20T03:45:41;19.43;;;8.93;;
4214;SDS011;2121;48.062;7.850;2022-10-20T03:48:07;13.23;;;8.60;;
4214;SDS011;2121;48.062;7.850;2022-10-20T03:50:36;9.07;;;7.80;;
4214;SDS011;2121;48.062;7.850;2022-10-20T03:53:06;9.03;;;7.87;;
4214;SDS011;2121;48.062;7.850;2022-10-20T03:55:34;16.37;;;8.73;;
4214;SDS011;2121;48.062;7.850;2022-10-20T03:58:01;11.90;;;6.87;;
4214;SDS011;2121;48.062;7.850;2022-10-20T04:00:27;10.73;;;7.30;;
4214;SDS011;2121;48.062;7.850;2022-10-20T04:02:53;11.33;;;8.23;;
4214;SDS011;2121;48.062;7.850;2022-10-20T04:05:19;15.50;;;9.03;;
4214;SDS011;2121;48.062;7.850;2022-10-20T04:07:45;14.43;;;8.63;;
4214;SDS011;2121;48.062;7.850;2022-10-20T04:10:12;9.43;;;8.13;;
4214;SDS011;2121;48.062;7.850;2022-10-20T04:12:39;9.87;;;7.50;;
4214;SDS011;2121;48.062;7.850;2022-10-20T04:15:05;13.23;;;8.53;;
4214;SDS011;2121;48.062;7.850;2022-10-20T04:17:32;15.37;;;9.13;;
4214;SDS011;2121;48.062;7.850;2022-10-20T04:19:58;12.73;;;8.50;;
4214;SDS011;2121;48.062;7.850;2022-10-20T04:22:24;17.63;;;8.70;;
4214;SDS011;2121;48.062;7.850;2022-10-20T04:24:50;15.60;;;9.13;;
4214;SDS011;2121;48.062;7.850;2022-10-20T04:27:15;14.10;;;9.10;;
4214;SDS011;2121;48.062;7.850;2022-10-20T04:29:41;9.23;;;7.13;;
4214;SDS011;2121;48.062;7.850;2022-10-20T04:32:07;10.20;;;7.77;;
4214;SDS011;2121;48.062;7.850;2022-10-20T04:34:33;13.23;;;7.33;;
4214;SDS011;2121;48.062;7.850;2022-10-20T04:36:59;14.33;;;7.40;;
4214;SDS011;2121;48.062;7.850;2022-10-20T04:39:25;13.90;;;8.73;;
4214;SDS011;2121;48.062;7.850;2022-10-20T04:41:51;11.13;;;7.70;;
4214;SDS011;2121;48.062;7.850;2022-10-20T04:44:16;13.63;;;7.57;;
4214;SDS011;2121;48.062;7.850;2022-10-20T04:46:42;12.67;;;8.70;;
4214;SDS011;2121;48.062;7.850;2022-10-20T04:49:08;11.23;;;8.37;;
4214;SDS011;2121;48.062;7.850;2022-10-20T04:51:33;10.57;;;8.37;;
4214;SDS011;2121;48.062;7.850;2022-10-20T04:54:00;14.73;;;7.43;;
4214;SDS011;2121;48.062;7.850;2022-10-20T04:56:26;11.37;;;8.60;;
4214;SDS011;2121;48.062;7.850;2022-10-20T04:58:52;39.50;;;8.70;;
4214;SDS011;2121;48.062;7.850;2022-10-20T05:01:21;16.47;;;7.43;;
4214;SDS011;2121;48.062;7.850;2022-10-20T05:03:49;9.60;;;7.03;;
4214;SDS011;2121;48.062;7.850;2022-10-20T05:06:33;10.37;;;7.60;;
4214;SDS011;2121;48.062;7.850;2022-10-20T05:09:00;17.00;;;7.23;;
4214;SDS011;2121;48.062;7.850;2022-10-20T05:11:29;12.17;;;7.33;;
4214;SDS011;2121;48.062;7.850;2022-10-20T05:13:55;9.03;;;6.70;;
4214;SDS011;2121;48.062;7.850;2022-10-20T05:16:21;12.33;;;7.50;;
4214;SDS011;2121;48.062;7.850;2022-10-20T05:18:48;13.63;;;8.00;;
4214;SDS011;2121;48.062;7.850;2022-10-20T05:21:20;11.33;;;7.37;;
4214;SDS011;2121;48.062;7.850;2022-10-20T05:23:53;11.73;;;7.47;;
4214;SDS011;2121;48.062;7.850;2022-10-20T05:26:21;15.30;;;7.97;;
4214;SDS011;2121;48.062;7.850;2022-10-20T05:28:48;8.33;;;6.70;;
4214;SDS011;2121;48.062;7.850;2022-10-20T05:31:15;17.23;;;7.80;;
4214;SDS011;2121;48.062;7.850;2022-10-20T05:33:46;11.87;;;7.13;;
4214;SDS011;2121;48.062;7.850;2022-10-20T05:36:18;16.77;;;7.80;;
4214;SDS011;2121;48.062;7.850;2022-10-20T05:38:47;18.63;;;9.77;;
4214;SDS011;2121;48.062;7.850;2022-10-20T05:41:16;13.53;;;9.10;;
4214;SDS011;2121;48.062;7.850;2022-10-20T05:43:48;10.33;;;9.17;;
4214;SDS011;2121;48.062;7.850;2022-10-20T05:46:15;13.20;;;8.40;;
4214;SDS011;2121;48.062;7.850;2022-10-20T05:48:42;9.90;;;7.80;;
4214;SDS011;2121;48.062;7.850;2022-10-20T05:51:13;8.83;;;7.87;;
4214;SDS011;2121;48.062;7.850;2022-10-20T05:53:45;13.80;;;8.87;;
4214;SDS011;2121;48.062;7.850;2022-10-20T05:56:12;8.40;;;7.50;;
4214;SDS011;2121;48.062;7.850;2022-10-20T05:58:41;13.90;;;7.93;;
4214;SDS011;2121;48.062;7.850;2022-10-20T06:01:09;11.23;;;8.50;;
4214;SDS011;2121;48.062;7.850;2022-10-20T06:06:22;18.90;;;11.37;;
4214;SDS011;2121;48.062;7.850;2022-10-20T06:08:51;19.43;;;9.77;;
4214;SDS011;2121;48.062;7.850;2022-10-20T06:11:18;14.03;;;9.60;;
4214;SDS011;2121;48.062;7.850;2022-10-20T06:13:45;12.80;;;8.97;;
4214;SDS011;2121;48.062;7.850;2022-10-20T06:16:12;11.77;;;8.80;;
4214;SDS011;2121;48.062;7.850;2022-10-20T06:18:44;11.67;;;8.77;;
4214;SDS011;2121;48.062;7.850;2022-10-20T06:21:11;12.60;;;9.23;;
4214;SDS011;2121;48.062;7.850;2022-10-20T06:23:39;11.80;;;7.97;;
4214;SDS011;2121;48.062;7.850;2022-10-20T06:26:10;13.60;;;8.10;;
4214;SDS011;2121;48.062;7.850;2022-10-20T06:28:38;10.03;;;7.53;;
4214;SDS011;2121;48.062;7.850;2022-10-20T06:33:48;9.63;;;7.80;;
4214;SDS011;2121;48.062;7.850;2022-10-20T06:36:14;10.17;;;7.47;;
4214;SDS011;2121;48.062;7.850;2022-10-20T06:38:41;8.83;;;7.93;;
4214;SDS011;2121;48.062;7.850;2022-10-20T06:41:09;11.80;;;8.00;;
4214;SDS011;2121;48.062;7.850;2022-10-20T06:43:41;10.40;;;8.23;;
4214;SDS011;2121;48.062;7.850;2022-10-20T06:46:11;9.20;;;7.33;;
4214;SDS011;2121;48.062;7.850;2022-10-20T06:48:41;11.57;;;6.73;;
4214;SDS011;2121;48.062;7.850;2022-10-20T06:51:09;11.57;;;9.47;;
4214;SDS011;2121;48.062;7.850;2022-10-20T06:53:38;15.80;;;8.13;;
4214;SDS011;2121;48.062;7.850;2022-10-20T06:56:11;10.27;;;9.23;;
4214;SDS011;2121;48.062;7.850;2022-10-20T06:58:53;14.10;;;8.90;;
4214;SDS011;2121;48.062;7.850;2022-10-20T07:01:27;15.87;;;9.17;;
4214;SDS011;2121;48.062;7.850;2022-10-20T07:03:57;11.10;;;8.23;;
4214;SDS011;2121;48.062;7.850;2022-10-20T07:06:47;11.93;;;8.20;;
4214;SDS011;2121;48.062;7.850;2022-10-20T07:09:13;11.40;;;7.93;;
4214;SDS011;2121;48.062;7.850;2022-10-20T07:11:42;13.43;;;7.73;;
4214;SDS011;2121;48.062;7.850;2022-10-20T07:14:08;15.93;;;8.47;;
4214;SDS011;2121;48.062;7.850;2022-10-20T07:16:37;11.33;;;7.10;;
4214;SDS011;2121;48.062;7.850;2022-10-20T07:19:03;18.47;;;7.30;;
4214;SDS011;2121;48.062;7.850;2022-10-20T07:21:29;9.33;;;7.03;;
4214;SDS011;2121;48.062;7.850;2022-10-20T07:23:55;9.87;;;7.40;;
4214;SDS011;2121;48.062;7.850;2022-10-20T07:28:57;11.33;;;7.13;;
4214;SDS011;2121;48.062;7.850;2022-10-20T07:31:37;15.77;;;9.13;;
4214;SDS011;2121;48.062;7.850;2022-10-20T07:34:07;12.63;;;7.50;;
4214;SDS011;2121;48.062;7.850;2022-10-20T07:36:35;20.00;;;9.27;;
4214;SDS011;2121;48.062;7.850;2022-10-20T07:39:02;12.10;;;8.27;;
4214;SDS011;2121;48.062;7.850;2022-10-20T07:41:29;15.03;;;9.63;;
4214;SDS011;2121;48.062;7.850;2022-10-20T07:43:55;11.20;;;8.63;;
4214;SDS011;2121;48.062;7.850;2022-10-20T07:46:22;14.53;;;10.37;;
4214;SDS011;2121;48.062;7.850;2022-10-20T07:48:48;19.37;;;9.23;;
4214;SDS011;2121;48.062;7.850;2022-10-20T07:53:48;14.53;;;8.87;;
4214;SDS011;2121;48.062;7.850;2022-10-20T07:56:44;18.83;;;8.37;;
4214;SDS011;2121;48.062;7.850;2022-10-20T07:59:10;13.33;;;9.00;;
4214;SDS011;2121;48.062;7.850;2022-10-20T08:01:36;12.30;;;8.07;;
4214;SDS011;2121;48.062;7.850;2022-10-20T08:04:03;16.33;;;9.00;;
4214;SDS011;2121;48.062;7.850;2022-10-20T08:06:29;18.63;;;10.07;;
4214;SDS011;2121;48.062;7.850;2022-10-20T08:08:54;16.53;;;9.57;;
4214;SDS011;2121;48.062;7.850;2022-10-20T08:11:20;24.97;;;10.83;;
4214;SDS011;2121;48.062;7.850;2022-10-20T08:13:47;17.00;;;9.23;;
4214;SDS011;2121;48.062;7.850;2022-10-20T08:16:13;23.77;;;9.63;;
4214;SDS011;2121;48.062;7.850;2022-10-20T08:18:40;15.23;;;9.53;;
4214;SDS011;2121;48.062;7.850;2022-10-20T08:21:09;13.03;;;9.70;;
4214;SDS011;2121;48.062;7.850;2022-10-20T08:23:42;19.23;;;11.03;;
4214;SDS011;2121;48.062;7.850;2022-10-20T08:26:11;18.50;;;10.90;;
4214;SDS011;2121;48.062;7.850;2022-10-20T08:28:45;17.77;;;10.60;;
4214;SDS011;2121;48.062;7.850;2022-10-20T08:31:12;16.10;;;10.00;;
4214;SDS011;2121;48.062;7.850;2022-10-20T08:33:38;18.97;;;11.87;;
4214;SDS011;2121;48.062;7.850;2022-10-20T08:36:08;15.00;;;11.37;;
4214;SDS011;2121;48.062;7.850;2022-10-20T08:38:37;18.80;;;13.37;;
4214;SDS011;2121;48.062;7.850;2022-10-20T08:41:04;18.67;;;12.07;;
4214;SDS011;2121;48.062;7.850;2022-10-20T08:43:43;18.10;;;13.13;;
4214;SDS011;2121;48.062;7.850;2022-10-20T08:46:12;17.47;;;11.07;;
4214;SDS011;2121;48.062;7.850;2022-10-20T08:48:44;15.80;;;11.37;;
4214;SDS011;2121;48.062;7.850;2022-10-20T08:51:17;14.80;;;10.90;;
4214;SDS011;2121;48.062;7.850;2022-10-20T08:53:46;14.87;;;10.50;;
4214;SDS011;2121;48.062;7.850;2022-10-20T08:56:13;17.97;;;10.37;;
4214;SDS011;2121;48.062;7.850;2022-10-20T08:58:48;21.77;;;10.40;;
4214;SDS011;2121;48.062;7.850;2022-10-20T09:01:21;14.10;;;10.23;;
4214;SDS011;2121;48.062;7.850;2022-10-20T09:04:12;21.17;;;12.17;;
4214;SDS011;2121;48.062;7.850;2022-10-20T09:06:52;23.33;;;10.50;;
4214;SDS011;2121;48.062;7.850;2022-10-20T09:09:23;14.37;;;8.97;;
4214;SDS011;2121;48.062;7.850;2022-10-20T09:11:53;13.27;;;9.00;;
4214;SDS011;2121;48.062;7.850;2022-10-20T09:14:25;10.83;;;9.63;;
4214;SDS011;2121;48.062;7.850;2022-10-20T09:16:54;15.40;;;9.80;;
4214;SDS011;2121;48.062;7.850;2022-10-20T09:19:20;16.63;;;9.77;;
4214;SDS011;2121;48.062;7.850;2022-10-20T09:21:50;16.37;;;9.63;;
4214;SDS011;2121;48.062;7.850;2022-10-20T09:24:18;10.13;;;9.13;;
4214;SDS011;2121;48.062;7.850;2022-10-20T09:26:47;14.63;;;8.47;;
4214;SDS011;2121;48.062;7.850;2022-10-20T09:29:16;11.80;;;9.43;;
4214;SDS011;2121;48.062;7.850;2022-10-20T09:31:48;11.30;;;8.23;;
4214;SDS011;2121;48.062;7.850;2022-10-20T09:36:52;16.43;;;7.53;;
4214;SDS011;2121;48.062;7.850;2022-10-20T09:39:25;13.23;;;7.20;;
4214;SDS011;2121;48.062;7.850;2022-10-20T09:42:06;12.80;;;8.33;;
4214;SDS011;2121;48.062;7.850;2022-10-20T09:44:59;14.27;;;8.50;;
4214;SDS011;2121;48.062;7.850;2022-10-20T09:47:29;17.27;;;8.47;;
4214;SDS011;2121;48.062;7.850;2022-10-20T09:50:01;9.43;;;8.13;;
4214;SDS011;2121;48.062;7.850;2022-10-20T09:52:32;16.70;;;8.40;;
4214;SDS011;2121;48.062;7.850;2022-10-20T09:55:44;12.93;;;8.80;;
4214;SDS011;2121;48.062;7.850;2022-10-20T09:58:14;9.93;;;7.47;;
4214;SDS011;2121;48.062;7.850;2022-10-20T10:00:53;19.40;;;11.87;;
4214;SDS011;2121;48.062;7.850;2022-10-20T10:03:25;14.97;;;11.00;;
4214;SDS011;2121;48.062;7.850;2022-10-20T10:05:52;12.40;;;9.30;;
4214;SDS011;2121;48.062;7.850;2022-10-20T10:08:24;13.10;;;9.57;;
4214;SDS011;2121;48.062;7.850;2022-10-20T10:11:13;14.43;;;9.70;;
4214;SDS011;2121;48.062;7.850;2022-10-20T10:13:42;17.70;;;8.27;;
4214;SDS011;2121;48.062;7.850;2022-10-20T10:16:12;14.87;;;8.10;;
4214;SDS011;2121;48.062;7.850;2022-10-20T10:18:40;14.40;;;8.93;;
4214;SDS011;2121;48.062;7.850;2022-10-20T10:21:10;12.93;;;8.30;;
4214;SDS011;2121;48.062;7.850;2022-10-20T10:23:49;15.93;;;8.50;;
4214;SDS011;2121;48.062;7.850;2022-10-20T10:29:04;13.03;;;9.10;;
4214;SDS011;2121;48.062;7.850;2022-10-20T10:31:31;14.17;;;10.23;;
4214;SDS011;2121;48.062;7.850;2022-10-20T10:34:08;14.43;;;10.30;;
4214;SDS011;2121;48.062;7.850;2022-10-20T10:36:43;12.97;;;8.40;;
4214;SDS011;2121;48.062;7.850;2022-10-20T10:39:10;17.47;;;9.43;;
4214;SDS011;2121;48.062;7.850;2022-10-20T10:47:40;11.47;;;9.60;;
4214;SDS011;2121;48.062;7.850;2022-10-20T10:59:09;16.93;;;9.17;;
4214;SDS011;2121;48.062;7.850;2022-10-20T11:10:11;11.40;;;8.27;;
4214;SDS011;2121;48.062;7.850;2022-10-20T11:18:41;16.53;;;11.07;;
4214;SDS011;2121;48.062;7.850;2022-10-20T11:27:15;21.80;;;8.97;;
4214;SDS011;2121;48.062;7.850;2022-10-20T11:29:52;11.70;;;9.23;;
4214;SDS011;2121;48.062;7.850;2022-10-20T11:32:44;12.83;;;8.43;;
4214;SDS011;2121;48.062;7.850;2022-10-20T11:35:39;10.33;;;7.93;;
4214;SDS011;2121;48.062;7.850;2022-10-20T11:41:21;11.00;;;8.60;;
4214;SDS011;2121;48.062;7.850;2022-10-20T11:44:06;11.83;;;8.67;;
4214;SDS011;2121;48.062;7.850;2022-10-20T11:49:15;10.57;;;9.10;;
4214;SDS011;2121;48.062;7.850;2022-10-20T12:12:05;11.10;;;8.17;;
4214;SDS011;2121;48.062;7.850;2022-10-20T12:14:55;11.37;;;7.63;;
4214;SDS011;2121;48.062;7.850;2022-10-20T12:22:47;7.37;;;6.60;;
4214;SDS011;2121;48.062;7.850;2022-10-20T12:31:02;13.97;;;6.93;;
4214;SDS011;2121;48.062;7.850;2022-10-20T12:38:42;12.10;;;7.47;;
4214;SDS011;2121;48.062;7.850;2022-10-20T12:41:30;12.70;;;8.20;;
4214;SDS011;2121;48.062;7.850;2022-10-20T12:44:21;12.37;;;7.37;;
4214;SDS011;2121;48.062;7.850;2022-10-20T12:46:57;12.50;;;7.13;;
4214;SDS011;2121;48.062;7.850;2022-10-20T12:49:35;10.70;;;7.03;;
4214;SDS011;2121;48.062;7.850;2022-10-20T12:52:17;9.70;;;7.70;;
4214;SDS011;2121;48.062;7.850;2022-10-20T12:54:52;8.20;;;7.20;;
4214;SDS011;2121;48.062;7.850;2022-10-20T12:57:31;11.70;;;7.70;;
4214;SDS011;2121;48.062;7.850;2022-10-20T13:00:06;16.10;;;9.03;;
4214;SDS011;2121;48.062;7.850;2022-10-20T13:02:54;14.90;;;7.97;;
4214;SDS011;2121;48.062;7.850;2022-10-20T13:05:23;17.93;;;7.80;;
4214;SDS011;2121;48.062;7.850;2022-10-20T13:15:26;16.27;;;8.30;;
4214;SDS011;2121;48.062;7.850;2022-10-20T13:26:23;10.73;;;8.43;;
4214;SDS011;2121;48.062;7.850;2022-10-20T13:31:57;12.00;;;9.17;;
4214;SDS011;2121;48.062;7.850;2022-10-20T13:34:47;8.90;;;8.00;;
4214;SDS011;2121;48.062;7.850;2022-10-20T13:38:03;14.40;;;8.20;;
4214;SDS011;2121;48.062;7.850;2022-10-20T13:44:01;17.70;;;8.07;;
4214;SDS011;2121;48.062;7.850;2022-10-20T13:52:30;13.50;;;7.03;;
4214;SDS011;2121;48.062;7.850;2022-10-20T13:55:22;20.70;;;7.30;;
4214;SDS011;2121;48.062;7.850;2022-10-20T14:00:30;9.17;;;6.60;;
4214;SDS011;2121;48.062;7.850;2022-10-20T14:03:16;8.47;;;6.80;;
4214;SDS011;2121;48.062;7.850;2022-10-20T14:05:42;12.67;;;7.40;;
4214;SDS011;2121;48.062;7.850;2022-10-20T14:08:09;11.23;;;7.00;;
4214;SDS011;2121;48.062;7.850;2022-10-20T14:10:37;9.47;;;6.73;;
4214;SDS011;2121;48.062;7.850;2022-10-20T14:13:16;11.30;;;8.20;;
4214;SDS011;2121;48.062;7.850;2022-10-20T14:15:48;12.83;;;7.90;;
4214;SDS011;2121;48.062;7.850;2022-10-20T14:18:21;21.97;;;13.53;;
4214;SDS011;2121;48.062;7.850;2022-10-20T14:20:54;30.70;;;18.40;;
4214;SDS011;2121;48.062;7.850;2022-10-20T14:23:33;46.70;;;20.60;;
4214;SDS011;2121;48.062;7.850;2022-10-20T14:26:03;42.33;;;20.40;;
4214;SDS011;2121;48.062;7.850;2022-10-20T14:28:32;20.87;;;15.63;;
4214;SDS011;2121;48.062;7.850;2022-10-20T14:31:00;16.33;;;10.67;;
4214;SDS011;2121;48.062;7.850;2022-10-20T14:33:27;10.73;;;8.57;;
4214;SDS011;2121;48.062;7.850;2022-10-20T14:35:55;24.00;;;8.33;;
4214;SDS011;2121;48.062;7.850;2022-10-20T14:38:24;11.70;;;8.30;;
4214;SDS011;2121;48.062;7.850;2022-10-20T14:40:59;17.63;;;9.97;;
4214;SDS011;2121;48.062;7.850;2022-10-20T14:46:03;12.90;;;9.60;;
4214;SDS011;2121;48.062;7.850;2022-10-20T14:48:34;19.33;;;8.53;;
4214;SDS011;2121;48.062;7.850;2022-10-20T14:56:49;18.43;;;9.80;;
4214;SDS011;2121;48.062;7.850;2022-10-20T14:59:21;23.87;;;14.27;;
4214;SDS011;2121;48.062;7.850;2022-10-20T15:02:01;19.03;;;12.47;;
4214;SDS011;2121;48.062;7.850;2022-10-20T15:04:42;10.07;;;8.97;;
4214;SDS011;2121;48.062;7.850;2022-10-20T15:07:22;14.53;;;10.00;;
4214;SDS011;2121;48.062;7.850;2022-10-20T15:09:52;17.23;;;10.50;;
4214;SDS011;2121;48.062;7.850;2022-10-20T15:15:04;14.40;;;9.50;;
4214;SDS011;2121;48.062;7.850;2022-10-20T15:17:38;22.57;;;11.93;;
4214;SDS011;2121;48.062;7.850;2022-10-20T15:22:57;16.83;;;10.33;;
4214;SDS011;2121;48.062;7.850;2022-10-20T15:25:30;16.07;;;10.13;;
4214;SDS011;2121;48.062;7.850;2022-10-20T15:28:09;17.17;;;10.80;;
4214;SDS011;2121;48.062;7.850;2022-10-20T15:30:51;15.10;;;10.43;;
4214;SDS011;2121;48.062;7.850;2022-10-20T15:33:17;12.70;;;11.23;;
4214;SDS011;2121;48.062;7.850;2022-10-20T15:35:42;13.27;;;10.90;;
4214;SDS011;2121;48.062;7.850;2022-10-20T15:38:11;18.97;;;10.07;;
4214;SDS011;2121;48.062;7.850;2022-10-20T15:40:38;16.20;;;11.53;;
4214;SDS011;2121;48.062;7.850;2022-10-20T15:43:04;24.63;;;11.97;;
4214;SDS011;2121;48.062;7.850;2022-10-20T15:45:33;20.70;;;12.40;;
4214;SDS011;2121;48.062;7.850;2022-10-20T15:48:03;13.03;;;9.87;;
4214;SDS011;2121;48.062;7.850;2022-10-20T15:50:29;17.93;;;11.00;;
4214;SDS011;2121;48.062;7.850;2022-10-20T15:52:55;18.90;;;9.67;;
4214;SDS011;2121;48.062;7.850;2022-10-20T15:55:25;17.43;;;9.50;;
4214;SDS011;2121;48.062;7.850;2022-10-20T15:57:55;15.10;;;10.23;;
4214;SDS011;2121;48.062;7.850;2022-10-20T16:00:22;14.33;;;10.17;;
4214;SDS011;2121;48.062;7.850;2022-10-20T16:02:49;12.50;;;9.50;;
4214;SDS011;2121;48.062;7.850;2022-10-20T16:05:17;11.90;;;9.67;;
4214;SDS011;2121;48.062;7.850;2022-10-20T16:07:44;13.43;;;8.90;;
4214;SDS011;2121;48.062;7.850;2022-10-20T16:10:11;13.33;;;9.03;;
4214;SDS011;2121;48.062;7.850;2022-10-20T16:12:38;11.23;;;9.23;;
4214;SDS011;2121;48.062;7.850;2022-10-20T16:15:07;10.37;;;7.90;;
4214;SDS011;2121;48.062;7.850;2022-10-20T16:17:34;18.07;;;8.63;;
4214;SDS011;2121;48.062;7.850;2022-10-20T16:20:00;20.77;;;9.67;;
4214;SDS011;2121;48.062;7.850;2022-10-20T16:22:27;13.23;;;8.83;;
4214;SDS011;2121;48.062;7.850;2022-10-20T16:24:53;12.90;;;9.97;;
4214;SDS011;2121;48.062;7.850;2022-10-20T16:27:20;16.40;;;12.53;;
4214;SDS011;2121;48.062;7.850;2022-10-20T16:29:46;25.43;;;12.83;;
4214;SDS011;2121;48.062;7.850;2022-10-20T16:32:14;20.67;;;11.80;;
4214;SDS011;2121;48.062;7.850;2022-10-20T16:34:40;17.23;;;12.20;;
4214;SDS011;2121;48.062;7.850;2022-10-20T16:37:05;14.70;;;10.43;;
4214;SDS011;2121;48.062;7.850;2022-10-20T16:39:31;15.50;;;11.50;;
4214;SDS011;2121;48.062;7.850;2022-10-20T16:41:57;17.57;;;11.90;;
4214;SDS011;2121;48.062;7.850;2022-10-20T16:44:23;28.37;;;15.50;;
4214;SDS011;2121;48.062;7.850;2022-10-20T16:46:48;19.97;;;13.30;;
4214;SDS011;2121;48.062;7.850;2022-10-20T16:49:14;20.20;;;13.83;;
4214;SDS011;2121;48.062;7.850;2022-10-20T16:51:40;20.27;;;13.50;;
4214;SDS011;2121;48.062;7.850;2022-10-20T16:54:06;15.93;;;12.13;;
4214;SDS011;2121;48.062;7.850;2022-10-20T16:56:31;20.70;;;11.30;;
4214;SDS011;2121;48.062;7.850;2022-10-20T16:58:57;14.87;;;10.47;;
4214;SDS011;2121;48.062;7.850;2022-10-20T17:01:23;18.80;;;11.50;;
4214;SDS011;2121;48.062;7.850;2022-10-20T17:03:49;16.97;;;10.70;;
4214;SDS011;2121;48.062;7.850;2022-10-20T17:06:17;23.03;;;11.03;;
4214;SDS011;2121;48.062;7.850;2022-10-20T17:08:46;17.97;;;9.80;;
4214;SDS011;2121;48.062;7.850;2022-10-20T17:11:13;18.90;;;10.43;;
4214;SDS011;2121;48.062;7.850;2022-10-20T17:13:45;13.20;;;10.17;;
4214;SDS011;2121;48.062;7.850;2022-10-20T17:16:15;16.00;;;11.53;;
4214;SDS011;2121;48.062;7.850;2022-10-20T17:18:44;16.87;;;11.23;;
4214;SDS011;2121;48.062;7.850;2022-10-20T17:21:10;14.47;;;11.17;;
4214;SDS011;2121;48.062;7.850;2022-10-20T17:23:38;19.20;;;11.03;;
4214;SDS011;2121;48.062;7.850;2022-10-20T17:26:08;26.07;;;15.63;;
4214;SDS011;2121;48.062;7.850;2022-10-20T17:28:41;16.87;;;12.87;;
4214;SDS011;2121;48.062;7.850;2022-10-20T17:31:08;16.77;;;11.47;;
4214;SDS011;2121;48.062;7.850;2022-10-20T17:33:36;23.70;;;12.93;;
4214;SDS011;2121;48.062;7.850;2022-10-20T17:36:03;21.57;;;14.10;;
4214;SDS011;2121;48.062;7.850;2022-10-20T17:38:29;28.07;;;14.87;;
4214;SDS011;2121;48.062;7.850;2022-10-20T17:41:00;16.73;;;13.23;;
4214;SDS011;2121;48.062;7.850;2022-10-20T17:43:31;24.53;;;16.43;;
4214;SDS011;2121;48.062;7.850;2022-10-20T17:46:08;32.97;;;17.97;;
4214;SDS011;2121;48.062;7.850;2022-10-20T17:48:39;22.57;;;16.50;;
4214;SDS011;2121;48.062;7.850;2022-10-20T17:51:06;36.27;;;21.13;;
4214;SDS011;2121;48.062;7.850;2022-10-20T17:53:40;30.23;;;19.80;;
4214;SDS011;2121;48.062;7.850;2022-10-20T17:56:13;26.40;;;18.90;;
4214;SDS011;2121;48.062;7.850;2022-10-20T17:58:43;21.70;;;15.93;;
4214;SDS011;2121;48.062;7.850;2022-10-20T18:01:24;18.57;;;14.10;;
4214;SDS011;2121;48.062;7.850;2022-10-20T18:04:06;25.40;;;14.80;;